sensor_id;sensor_type;location;lat;lon;timestamp;pressure;altitude;pressure_sealevel;temperature;humidity
25420;BME280;13354;48.174;11.566;2023-04-10T00:01:47;96378.16;;;6.34;67.35
25420;BME280;13354;48.174;11.566;2023-04-10T00:04:13;96374.88;;;6.22;67.73
25420;BME280;13354;48.174;11.566;2023-04-10T00:06:39;96376.69;;;6.21;67.74
25420;BME280;13354;48.174;11.566;2023-04-10T00:09:05;96379.38;;;6.12;68.12
25420;BME280;13354;48.174;11.566;2023-04-10T00:11:30;96374.75;;;6.23;67.85
25420;BME280;13354;48.174;11.566;2023-04-10T00:13:56;96378.25;;;6.14;68.22
25420;BME280;13354;48.174;11.566;2023-04-10T00:16:21;96368.75;;;6.03;68.29
25420;BME280;13354;48.174;11.566;2023-04-10T00:18:46;96373.72;;;6.07;68.18
25420;BME280;13354;48.174;11.566;2023-04-10T00:21:11;96364.63;;;6.01;68.55
25420;BME280;13354;48.174;11.566;2023-04-10T00:23:36;96369.50;;;5.96;68.64
25420;BME280;13354;48.174;11.566;2023-04-10T00:26:02;96365.75;;;5.98;68.59
25420;BME280;13354;48.174;11.566;2023-04-10T00:28:27;96361.19;;;6.00;68.63
25420;BME280;13354;48.174;11.566;2023-04-10T00:30:52;96362.53;;;6.04;68.48
25420;BME280;13354;48.174;11.566;2023-04-10T00:33:17;96353.31;;;6.00;68.48
25420;BME280;13354;48.174;11.566;2023-04-10T00:35:42;96351.34;;;6.02;68.29
25420;BME280;13354;48.174;11.566;2023-04-10T00:38:08;96343.25;;;6.14;67.78
25420;BME280;13354;48.174;11.566;2023-04-10T00:40:33;96350.22;;;6.05;68.23
25420;BME280;13354;48.174;11.566;2023-04-10T00:42:59;96347.97;;;6.10;67.62
25420;BME280;13354;48.174;11.566;2023-04-10T00:45:24;96346.63;;;6.06;68.06
25420;BME280;13354;48.174;11.566;2023-04-10T00:47:49;96351.34;;;6.02;67.71
25420;BME280;13354;48.174;11.566;2023-04-10T00:50:15;96348.56;;;6.04;67.19
25420;BME280;13354;48.174;11.566;2023-04-10T00:52:40;96340.63;;;6.14;67.39
25420;BME280;13354;48.174;11.566;2023-04-10T00:55:05;96334.44;;;6.05;67.57
25420;BME280;13354;48.174;11.566;2023-04-10T00:57:32;96335.75;;;5.91;67.76
25420;BME280;13354;48.174;11.566;2023-04-10T00:59:57;96338.09;;;5.94;67.60
25420;BME280;13354;48.174;11.566;2023-04-10T01:02:22;96342.66;;;5.92;67.38
25420;BME280;13354;48.174;11.566;2023-04-10T01:04:47;96342.38;;;5.95;67.30
25420;BME280;13354;48.174;11.566;2023-04-10T01:12:37;96345.34;;;5.82;67.45
25420;BME280;13354;48.174;11.566;2023-04-10T01:15:11;96341.75;;;5.74;67.38
25420;BME280;13354;48.174;11.566;2023-04-10T01:17:40;96337.66;;;5.71;67.58
25420;BME280;13354;48.174;11.566;2023-04-10T01:20:15;96349.84;;;5.63;67.73
25420;BME280;13354;48.174;11.566;2023-04-10T01:27:45;96349.69;;;5.27;69.22
25420;BME280;13354;48.174;11.566;2023-04-10T01:30:16;96344.47;;;5.17;69.66
25420;BME280;13354;48.174;11.566;2023-04-10T01:32:45;96346.81;;;5.11;70.19
25420;BME280;13354;48.174;11.566;2023-04-10T01:35:12;96346.44;;;5.05;70.23
25420;BME280;13354;48.174;11.566;2023-04-10T01:37:39;96343.53;;;4.99;70.71
25420;BME280;13354;48.174;11.566;2023-04-10T01:40:07;96336.91;;;4.95;71.01
25420;BME280;13354;48.174;11.566;2023-04-10T01:42:34;96328.50;;;4.91;71.08
25420;BME280;13354;48.174;11.566;2023-04-10T01:45:03;96337.84;;;5.03;71.14
25420;BME280;13354;48.174;11.566;2023-04-10T01:47:28;96320.63;;;5.01;71.08
25420;BME280;13354;48.174;11.566;2023-04-10T01:49:54;96317.06;;;4.82;71.44
25420;BME280;13354;48.174;11.566;2023-04-10T01:52:21;96330.72;;;4.76;71.96
25420;BME280;13354;48.174;11.566;2023-04-10T01:54:47;96318.03;;;4.72;71.94
25420;BME280;13354;48.174;11.566;2023-04-10T01:57:13;96315.00;;;4.67;71.75
25420;BME280;13354;48.174;11.566;2023-04-10T01:59:39;96318.16;;;4.70;71.74
25420;BME280;13354;48.174;11.566;2023-04-10T02:02:04;96316.66;;;4.68;71.26
25420;BME280;13354;48.174;11.566;2023-04-10T02:04:31;96323.41;;;4.70;71.16
25420;BME280;13354;48.174;11.566;2023-04-10T02:09:30;96308.66;;;4.79;71.23
25420;BME280;13354;48.174;11.566;2023-04-10T02:11:58;96307.94;;;4.77;71.32
25420;BME280;13354;48.174;11.566;2023-04-10T02:14:26;96312.91;;;4.70;71.10
25420;BME280;13354;48.174;11.566;2023-04-10T02:16:53;96323.97;;;4.74;71.21
25420;BME280;13354;48.174;11.566;2023-04-10T02:19:19;96316.91;;;4.74;71.23
25420;BME280;13354;48.174;11.566;2023-04-10T02:21:45;96319.41;;;4.76;70.95
25420;BME280;13354;48.174;11.566;2023-04-10T02:24:11;96309.03;;;4.84;70.69
25420;BME280;13354;48.174;11.566;2023-04-10T02:26:46;96310.72;;;4.66;71.38
25420;BME280;13354;48.174;11.566;2023-04-10T02:29:11;96312.53;;;4.65;71.36
25420;BME280;13354;48.174;11.566;2023-04-10T02:31:36;96311.53;;;4.76;71.21
25420;BME280;13354;48.174;11.566;2023-04-10T02:34:01;96313.34;;;4.56;71.40
25420;BME280;13354;48.174;11.566;2023-04-10T02:36:27;96318.59;;;4.66;71.35
25420;BME280;13354;48.174;11.566;2023-04-10T02:38:52;96314.03;;;4.68;71.27
25420;BME280;13354;48.174;11.566;2023-04-10T02:41:17;96313.78;;;4.61;71.27
25420;BME280;13354;48.174;11.566;2023-04-10T02:43:42;96317.22;;;4.52;71.95
25420;BME280;13354;48.174;11.566;2023-04-10T02:46:07;96320.41;;;4.46;71.63
25420;BME280;13354;48.174;11.566;2023-04-10T02:48:33;96315.72;;;4.49;71.83
25420;BME280;13354;48.174;11.566;2023-04-10T02:50:58;96326.06;;;4.51;71.46
25420;BME280;13354;48.174;11.566;2023-04-10T02:53:23;96323.44;;;4.51;71.80
25420;BME280;13354;48.174;11.566;2023-04-10T02:55:50;96321.22;;;4.46;71.72
25420;BME280;13354;48.174;11.566;2023-04-10T02:58:16;96318.34;;;4.49;71.76
25420;BME280;13354;48.174;11.566;2023-04-10T03:00:46;96318.19;;;4.51;71.66
25420;BME280;13354;48.174;11.566;2023-04-10T03:03:11;96319.41;;;4.56;71.45
25420;BME280;13354;48.174;11.566;2023-04-10T03:05:36;96323.56;;;4.59;71.36
25420;BME280;13354;48.174;11.566;2023-04-10T03:08:01;96309.47;;;4.60;70.71
25420;BME280;13354;48.174;11.566;2023-04-10T03:10:27;96316.53;;;4.50;71.11
25420;BME280;13354;48.174;11.566;2023-04-10T03:12:53;96305.63;;;4.45;71.38
25420;BME280;13354;48.174;11.566;2023-04-10T03:15:18;96310.16;;;4.52;71.03
25420;BME280;13354;48.174;11.566;2023-04-10T03:17:43;96306.44;;;4.55;71.30
25420;BME280;13354;48.174;11.566;2023-04-10T03:20:08;96304.66;;;4.55;71.01
25420;BME280;13354;48.174;11.566;2023-04-10T03:22:34;96308.94;;;4.47;70.99
25420;BME280;13354;48.174;11.566;2023-04-10T03:24:59;96307.84;;;4.40;71.06
25420;BME280;13354;48.174;11.566;2023-04-10T03:27:25;96311.44;;;4.39;71.50
25420;BME280;13354;48.174;11.566;2023-04-10T03:29:51;96316.53;;;4.30;71.50
25420;BME280;13354;48.174;11.566;2023-04-10T03:32:16;96307.28;;;4.36;71.52
25420;BME280;13354;48.174;11.566;2023-04-10T03:34:41;96310.59;;;4.28;71.96
25420;BME280;13354;48.174;11.566;2023-04-10T03:37:06;96309.34;;;4.32;71.75
25420;BME280;13354;48.174;11.566;2023-04-10T03:39:31;96308.81;;;4.29;71.92
25420;BME280;13354;48.174;11.566;2023-04-10T03:41:57;96316.09;;;4.16;72.32
25420;BME280;13354;48.174;11.566;2023-04-10T03:44:22;96313.59;;;4.04;72.84
25420;BME280;13354;48.174;11.566;2023-04-10T03:46:47;96305.63;;;4.06;72.93
25420;BME280;13354;48.174;11.566;2023-04-10T03:49:13;96315.94;;;4.07;72.85
25420;BME280;13354;48.174;11.566;2023-04-10T03:51:38;96312.22;;;3.91;73.54
25420;BME280;13354;48.174;11.566;2023-04-10T03:54:03;96314.97;;;3.89;73.94
25420;BME280;13354;48.174;11.566;2023-04-10T03:56:28;96317.03;;;3.95;74.00
25420;BME280;13354;48.174;11.566;2023-04-10T03:58:53;96323.00;;;4.07;73.42
25420;BME280;13354;48.174;11.566;2023-04-10T04:01:19;96321.56;;;3.93;73.65
25420;BME280;13354;48.174;11.566;2023-04-10T04:03:44;96318.84;;;4.04;73.43
25420;BME280;13354;48.174;11.566;2023-04-10T04:06:09;96312.75;;;3.84;73.84
25420;BME280;13354;48.174;11.566;2023-04-10T04:08:34;96325.44;;;3.89;74.12
25420;BME280;13354;48.174;11.566;2023-04-10T04:11:01;96318.66;;;3.86;74.28
25420;BME280;13354;48.174;11.566;2023-04-10T04:13:26;96319.53;;;3.87;74.27
25420;BME280;13354;48.174;11.566;2023-04-10T04:15:51;96321.16;;;3.88;74.38
25420;BME280;13354;48.174;11.566;2023-04-10T04:18:17;96322.97;;;3.97;74.63
25420;BME280;13354;48.174;11.566;2023-04-10T04:20:42;96316.91;;;3.97;74.19
25420;BME280;13354;48.174;11.566;2023-04-10T04:23:07;96316.91;;;3.87;74.54
25420;BME280;13354;48.174;11.566;2023-04-10T04:25:32;96314.13;;;3.88;74.85
25420;BME280;13354;48.174;11.566;2023-04-10T04:27:58;96312.59;;;3.86;74.78
25420;BME280;13354;48.174;11.566;2023-04-10T04:30:23;96305.72;;;3.85;74.88
25420;BME280;13354;48.174;11.566;2023-04-10T04:32:48;96315.78;;;3.80;75.21
25420;BME280;13354;48.174;11.566;2023-04-10T04:35:13;96316.91;;;3.87;75.33
25420;BME280;13354;48.174;11.566;2023-04-10T04:37:38;96325.28;;;3.81;74.96
25420;BME280;13354;48.174;11.566;2023-04-10T04:40:04;96325.69;;;3.86;75.02
25420;BME280;13354;48.174;11.566;2023-04-10T04:42:29;96331.50;;;3.90;74.96
25420;BME280;13354;48.174;11.566;2023-04-10T04:44:54;96339.25;;;3.91;74.86
25420;BME280;13354;48.174;11.566;2023-04-10T04:47:20;96342.53;;;3.93;74.58
25420;BME280;13354;48.174;11.566;2023-04-10T04:49:45;96341.31;;;3.87;74.55
25420;BME280;13354;48.174;11.566;2023-04-10T04:52:10;96337.66;;;3.79;75.16
25420;BME280;13354;48.174;11.566;2023-04-10T04:54:35;96338.13;;;3.84;75.25
25420;BME280;13354;48.174;11.566;2023-04-10T04:57:00;96338.66;;;3.78;75.15
25420;BME280;13354;48.174;11.566;2023-04-10T04:59:26;96335.47;;;3.74;75.33
25420;BME280;13354;48.174;11.566;2023-04-10T05:01:51;96331.03;;;3.75;75.23
25420;BME280;13354;48.174;11.566;2023-04-10T05:04:16;96330.81;;;3.87;75.18
25420;BME280;13354;48.174;11.566;2023-04-10T05:06:41;96329.97;;;3.77;75.27
25420;BME280;13354;48.174;11.566;2023-04-10T05:09:06;96334.94;;;3.90;75.03
25420;BME280;13354;48.174;11.566;2023-04-10T05:11:32;96337.16;;;3.85;74.90
25420;BME280;13354;48.174;11.566;2023-04-10T05:13:57;96337.16;;;3.85;75.01
25420;BME280;13354;48.174;11.566;2023-04-10T05:16:22;96337.75;;;3.98;74.42
25420;BME280;13354;48.174;11.566;2023-04-10T05:18:47;96336.75;;;3.90;74.39
25420;BME280;13354;48.174;11.566;2023-04-10T05:21:12;96333.19;;;4.00;74.60
25420;BME280;13354;48.174;11.566;2023-04-10T05:23:37;96333.19;;;4.10;74.18
25420;BME280;13354;48.174;11.566;2023-04-10T05:26:03;96327.81;;;4.02;74.06
25420;BME280;13354;48.174;11.566;2023-04-10T05:28:30;96321.56;;;3.93;74.46
25420;BME280;13354;48.174;11.566;2023-04-10T05:30:55;96326.28;;;3.99;74.72
25420;BME280;13354;48.174;11.566;2023-04-10T05:33:20;96329.47;;;4.03;74.37
25420;BME280;13354;48.174;11.566;2023-04-10T05:35:46;96329.19;;;4.06;74.66
25420;BME280;13354;48.174;11.566;2023-04-10T05:38:11;96333.63;;;4.15;74.59
25420;BME280;13354;48.174;11.566;2023-04-10T05:40:36;96333.63;;;4.25;73.86
25420;BME280;13354;48.174;11.566;2023-04-10T05:43:01;96338.59;;;4.28;73.92
25420;BME280;13354;48.174;11.566;2023-04-10T05:45:27;96336.69;;;4.40;73.25
25420;BME280;13354;48.174;11.566;2023-04-10T05:47:52;96338.91;;;4.54;73.17
25420;BME280;13354;48.174;11.566;2023-04-10T05:50:18;96343.16;;;4.45;73.53
25420;BME280;13354;48.174;11.566;2023-04-10T05:52:43;96341.38;;;4.55;72.73
25420;BME280;13354;48.174;11.566;2023-04-10T05:55:08;96353.38;;;4.68;72.78
25420;BME280;13354;48.174;11.566;2023-04-10T05:57:33;96345.09;;;4.72;72.12
25420;BME280;13354;48.174;11.566;2023-04-10T05:59:58;96350.63;;;4.69;72.61
25420;BME280;13354;48.174;11.566;2023-04-10T06:02:24;96354.34;;;4.86;72.50
25420;BME280;13354;48.174;11.566;2023-04-10T06:04:50;96350.97;;;5.13;71.28
25420;BME280;13354;48.174;11.566;2023-04-10T06:07:15;96360.06;;;5.19;71.50
25420;BME280;13354;48.174;11.566;2023-04-10T06:09:40;96356.16;;;5.42;70.57
25420;BME280;13354;48.174;11.566;2023-04-10T06:12:05;96364.03;;;5.70;69.61
25420;BME280;13354;48.174;11.566;2023-04-10T06:14:30;96350.84;;;6.17;69.20
25420;BME280;13354;48.174;11.566;2023-04-10T06:16:56;96343.81;;;7.15;66.80
25420;BME280;13354;48.174;11.566;2023-04-10T06:19:21;96343.53;;;7.86;63.77
25420;BME280;13354;48.174;11.566;2023-04-10T06:21:46;96346.03;;;9.44;59.44
25420;BME280;13354;48.174;11.566;2023-04-10T06:24:11;96336.56;;;10.45;55.25
25420;BME280;13354;48.174;11.566;2023-04-10T06:26:37;96332.97;;;11.59;52.88
25420;BME280;13354;48.174;11.566;2023-04-10T06:29:03;96340.28;;;11.43;52.15
25420;BME280;13354;48.174;11.566;2023-04-10T06:31:29;96330.44;;;12.47;49.96
25420;BME280;13354;48.174;11.566;2023-04-10T06:33:56;96323.84;;;13.85;46.44
25420;BME280;13354;48.174;11.566;2023-04-10T06:36:21;96326.50;;;13.85;46.12
25420;BME280;13354;48.174;11.566;2023-04-10T06:38:46;96316.22;;;15.31;43.82
25420;BME280;13354;48.174;11.566;2023-04-10T06:41:12;96315.97;;;15.99;41.56
25420;BME280;13354;48.174;11.566;2023-04-10T06:43:37;96319.56;;;17.57;38.52
25420;BME280;13354;48.174;11.566;2023-04-10T06:46:03;96315.47;;;17.73;37.56
25420;BME280;13354;48.174;11.566;2023-04-10T06:48:29;96318.78;;;17.25;37.79
25420;BME280;13354;48.174;11.566;2023-04-10T06:50:54;96316.56;;;17.47;37.83
25420;BME280;13354;48.174;11.566;2023-04-10T06:53:19;96301.63;;;18.98;35.81
25420;BME280;13354;48.174;11.566;2023-04-10T06:55:45;96304.41;;;19.03;34.65
25420;BME280;13354;48.174;11.566;2023-04-10T06:58:10;96318.00;;;18.12;35.21
25420;BME280;13354;48.174;11.566;2023-04-10T07:00:36;96307.53;;;19.30;34.42
25420;BME280;13354;48.174;11.566;2023-04-10T07:03:01;96307.38;;;18.72;34.20
25420;BME280;13354;48.174;11.566;2023-04-10T07:05:26;96314.25;;;16.62;37.19
25420;BME280;13354;48.174;11.566;2023-04-10T07:07:51;96315.78;;;15.60;38.85
25420;BME280;13354;48.174;11.566;2023-04-10T07:10:17;96315.47;;;14.42;41.13
25420;BME280;13354;48.174;11.566;2023-04-10T07:12:42;96322.28;;;13.34;43.40
25420;BME280;13354;48.174;11.566;2023-04-10T07:15:07;96315.19;;;12.55;45.64
25420;BME280;13354;48.174;11.566;2023-04-10T07:17:33;96320.91;;;11.42;48.11
25420;BME280;13354;48.174;11.566;2023-04-10T07:19:58;96323.34;;;10.91;49.85
25420;BME280;13354;48.174;11.566;2023-04-10T07:22:23;96323.91;;;10.32;51.86
25420;BME280;13354;48.174;11.566;2023-04-10T07:24:48;96332.16;;;9.98;53.41
25420;BME280;13354;48.174;11.566;2023-04-10T07:27:13;96333.09;;;9.66;54.56
25420;BME280;13354;48.174;11.566;2023-04-10T07:29:39;96326.06;;;9.42;55.57
25420;BME280;13354;48.174;11.566;2023-04-10T07:32:04;96325.63;;;9.14;56.83
25420;BME280;13354;48.174;11.566;2023-04-10T07:34:30;96325.47;;;9.07;57.37
25420;BME280;13354;48.174;11.566;2023-04-10T07:36:55;96334.88;;;8.85;58.01
25420;BME280;13354;48.174;11.566;2023-04-10T07:39:20;96327.28;;;8.74;58.25
25420;BME280;13354;48.174;11.566;2023-04-10T07:41:46;96327.09;;;8.76;58.70
25420;BME280;13354;48.174;11.566;2023-04-10T07:44:11;96325.47;;;8.66;59.18
25420;BME280;13354;48.174;11.566;2023-04-10T07:46:37;96323.66;;;8.51;59.45
25420;BME280;13354;48.174;11.566;2023-04-10T07:49:03;96325.59;;;8.49;59.41
25420;BME280;13354;48.174;11.566;2023-04-10T07:51:28;96320.00;;;8.60;59.49
25420;BME280;13354;48.174;11.566;2023-04-10T07:53:53;96327.94;;;8.60;59.34
25420;BME280;13354;48.174;11.566;2023-04-10T07:56:19;96319.16;;;8.43;59.94
25420;BME280;13354;48.174;11.566;2023-04-10T07:58:45;96325.63;;;8.65;59.29
25420;BME280;13354;48.174;11.566;2023-04-10T08:01:11;96319.88;;;8.69;58.14
25420;BME280;13354;48.174;11.566;2023-04-10T08:03:39;96323.81;;;8.74;57.95
25420;BME280;13354;48.174;11.566;2023-04-10T08:06:05;96318.19;;;8.68;57.86
25420;BME280;13354;48.174;11.566;2023-04-10T08:08:33;96313.59;;;8.62;57.76
25420;BME280;13354;48.174;11.566;2023-04-10T08:10:58;96311.78;;;8.63;58.45
25420;BME280;13354;48.174;11.566;2023-04-10T08:13:23;96314.72;;;8.76;58.29
25420;BME280;13354;48.174;11.566;2023-04-10T08:15:48;96317.72;;;8.73;57.44
25420;BME280;13354;48.174;11.566;2023-04-10T08:18:14;96312.03;;;9.33;56.38
25420;BME280;13354;48.174;11.566;2023-04-10T08:20:39;96309.56;;;9.87;55.59
25420;BME280;13354;48.174;11.566;2023-04-10T08:23:04;96305.66;;;10.46;54.41
25420;BME280;13354;48.174;11.566;2023-04-10T08:25:29;96300.44;;;10.98;53.26
25420;BME280;13354;48.174;11.566;2023-04-10T08:27:55;96291.53;;;11.73;51.44
25420;BME280;13354;48.174;11.566;2023-04-10T08:30:20;96299.22;;;11.83;49.67
25420;BME280;13354;48.174;11.566;2023-04-10T08:32:46;96299.69;;;12.01;48.94
25420;BME280;13354;48.174;11.566;2023-04-10T08:35:11;96301.00;;;12.27;48.96
25420;BME280;13354;48.174;11.566;2023-04-10T08:37:36;96300.41;;;12.46;47.41
25420;BME280;13354;48.174;11.566;2023-04-10T08:40:01;96297.25;;;12.57;48.06
25420;BME280;13354;48.174;11.566;2023-04-10T08:42:27;96294.81;;;13.05;46.55
25420;BME280;13354;48.174;11.566;2023-04-10T08:44:52;96300.44;;;12.96;46.47
25420;BME280;13354;48.174;11.566;2023-04-10T08:47:19;96300.78;;;12.86;46.78
25420;BME280;13354;48.174;11.566;2023-04-10T08:49:55;96298.16;;;13.14;46.50
25420;BME280;13354;48.174;11.566;2023-04-10T08:52:20;96297.63;;;12.97;46.06
25420;BME280;13354;48.174;11.566;2023-04-10T08:54:47;96304.50;;;12.92;45.89
25420;BME280;13354;48.174;11.566;2023-04-10T08:57:14;96307.88;;;13.00;45.85
25420;BME280;13354;48.174;11.566;2023-04-10T08:59:44;96304.69;;;13.68;44.23
25420;BME280;13354;48.174;11.566;2023-04-10T09:02:10;96297.06;;;13.93;42.79
25420;BME280;13354;48.174;11.566;2023-04-10T09:04:35;96300.19;;;14.10;42.34
25420;BME280;13354;48.174;11.566;2023-04-10T09:07:00;96294.50;;;14.19;42.13
25420;BME280;13354;48.174;11.566;2023-04-10T09:09:26;96283.78;;;14.06;42.88
25420;BME280;13354;48.174;11.566;2023-04-10T09:14:21;96294.91;;;14.16;42.40
25420;BME280;13354;48.174;11.566;2023-04-10T09:16:47;96294.81;;;13.96;43.15
25420;BME280;13354;48.174;11.566;2023-04-10T09:19:12;96294.31;;;14.27;42.17
25420;BME280;13354;48.174;11.566;2023-04-10T09:21:37;96280.13;;;14.82;41.16
25420;BME280;13354;48.174;11.566;2023-04-10T09:24:02;96277.66;;;14.87;41.18
25420;BME280;13354;48.174;11.566;2023-04-10T09:26:31;96275.22;;;15.12;41.91
25420;BME280;13354;48.174;11.566;2023-04-10T09:29:04;96272.50;;;15.38;40.83
25420;BME280;13354;48.174;11.566;2023-04-10T09:31:30;96269.22;;;15.56;40.11
25420;BME280;13354;48.174;11.566;2023-04-10T09:36:40;96269.41;;;15.75;39.80
25420;BME280;13354;48.174;11.566;2023-04-10T09:39:06;96265.09;;;15.80;40.20
25420;BME280;13354;48.174;11.566;2023-04-10T09:41:32;96249.78;;;16.01;38.65
25420;BME280;13354;48.174;11.566;2023-04-10T09:44:04;96247.75;;;15.96;39.04
25420;BME280;13354;48.174;11.566;2023-04-10T09:46:30;96246.69;;;16.10;38.32
25420;BME280;13354;48.174;11.566;2023-04-10T09:48:55;96241.63;;;15.89;38.14
25420;BME280;13354;48.174;11.566;2023-04-10T09:51:28;96241.19;;;16.37;37.48
25420;BME280;13354;48.174;11.566;2023-04-10T09:53:54;96240.78;;;15.95;36.63
25420;BME280;13354;48.174;11.566;2023-04-10T09:56:20;96231.28;;;16.44;36.69
25420;BME280;13354;48.174;11.566;2023-04-10T09:58:46;96230.13;;;16.33;36.68
25420;BME280;13354;48.174;11.566;2023-04-10T10:01:12;96224.41;;;16.61;37.15
25420;BME280;13354;48.174;11.566;2023-04-10T10:03:38;96222.31;;;16.63;36.24
25420;BME280;13354;48.174;11.566;2023-04-10T10:06:04;96225.72;;;16.07;36.17
25420;BME280;13354;48.174;11.566;2023-04-10T10:08:30;96217.69;;;16.14;36.24
25420;BME280;13354;48.174;11.566;2023-04-10T10:10:57;96205.91;;;16.28;37.12
25420;BME280;13354;48.174;11.566;2023-04-10T10:13:27;96213.94;;;16.22;36.74
25420;BME280;13354;48.174;11.566;2023-04-10T10:18:26;96205.94;;;15.83;37.82
25420;BME280;13354;48.174;11.566;2023-04-10T10:20:55;96197.59;;;16.05;36.92
25420;BME280;13354;48.174;11.566;2023-04-10T10:23:21;96201.72;;;16.39;36.67
25420;BME280;13354;48.174;11.566;2023-04-10T10:25:47;96204.38;;;16.07;36.79
25420;BME280;13354;48.174;11.566;2023-04-10T10:28:13;96201.63;;;16.52;37.03
25420;BME280;13354;48.174;11.566;2023-04-10T10:30:38;96193.81;;;16.82;36.64
25420;BME280;13354;48.174;11.566;2023-04-10T10:33:04;96193.22;;;17.05;35.25
25420;BME280;13354;48.174;11.566;2023-04-10T10:35:30;96186.72;;;17.20;36.13
25420;BME280;13354;48.174;11.566;2023-04-10T10:37:59;96181.66;;;17.30;35.61
25420;BME280;13354;48.174;11.566;2023-04-10T10:45:16;96172.81;;;17.84;34.00
25420;BME280;13354;48.174;11.566;2023-04-10T10:47:46;96172.81;;;18.15;34.05
25420;BME280;13354;48.174;11.566;2023-04-10T10:50:12;96169.81;;;17.93;33.39
25420;BME280;13354;48.174;11.566;2023-04-10T10:52:45;96162.72;;;18.17;33.67
25420;BME280;13354;48.174;11.566;2023-04-10T10:55:26;96150.75;;;18.31;34.06
25420;BME280;13354;48.174;11.566;2023-04-10T10:57:56;96156.53;;;18.16;32.48
25420;BME280;13354;48.174;11.566;2023-04-10T11:00:22;96157.72;;;18.20;33.08
25420;BME280;13354;48.174;11.566;2023-04-10T11:08:42;96135.25;;;18.98;32.50
25420;BME280;13354;48.174;11.566;2023-04-10T11:11:24;96126.47;;;19.38;32.05
25420;BME280;13354;48.174;11.566;2023-04-10T11:16:19;96128.13;;;19.79;30.44
25420;BME280;13354;48.174;11.566;2023-04-10T11:21:13;96115.91;;;20.00;29.47
25420;BME280;13354;48.174;11.566;2023-04-10T11:26:13;96116.91;;;20.57;27.91
25420;BME280;13354;48.174;11.566;2023-04-10T11:31:42;96108.25;;;21.27;27.36
25420;BME280;13354;48.174;11.566;2023-04-10T11:34:08;96101.84;;;21.72;26.87
25420;BME280;13354;48.174;11.566;2023-04-10T11:36:41;96106.41;;;21.93;25.50
25420;BME280;13354;48.174;11.566;2023-04-10T11:39:11;96090.50;;;22.19;24.89
25420;BME280;13354;48.174;11.566;2023-04-10T11:41:45;96094.78;;;22.15;23.29
25420;BME280;13354;48.174;11.566;2023-04-10T11:46:44;96073.47;;;22.46;26.02
25420;BME280;13354;48.174;11.566;2023-04-10T11:49:18;96076.25;;;22.51;25.84
25420;BME280;13354;48.174;11.566;2023-04-10T11:51:44;96068.06;;;22.78;25.02
25420;BME280;13354;48.174;11.566;2023-04-10T11:54:11;96076.44;;;22.44;24.84
25420;BME280;13354;48.174;11.566;2023-04-10T11:56:37;96064.47;;;22.35;25.51
25420;BME280;13354;48.174;11.566;2023-04-10T11:59:03;96073.41;;;21.37;24.75
25420;BME280;13354;48.174;11.566;2023-04-10T12:01:33;96063.13;;;21.78;26.55
25420;BME280;13354;48.174;11.566;2023-04-10T12:03:59;96070.41;;;21.34;26.41
25420;BME280;13354;48.174;11.566;2023-04-10T12:06:25;96067.59;;;21.45;26.27
25420;BME280;13354;48.174;11.566;2023-04-10T12:08:51;96075.06;;;20.83;26.17
25420;BME280;13354;48.174;11.566;2023-04-10T12:11:20;96074.34;;;21.09;27.05
25420;BME280;13354;48.174;11.566;2023-04-10T12:13:46;96074.25;;;20.32;26.51
25420;BME280;13354;48.174;11.566;2023-04-10T12:16:12;96073.81;;;20.06;26.61
25420;BME280;13354;48.174;11.566;2023-04-10T12:18:37;96074.94;;;19.53;27.15
25420;BME280;13354;48.174;11.566;2023-04-10T12:21:03;96078.81;;;19.45;27.72
25420;BME280;13354;48.174;11.566;2023-04-10T12:23:28;96075.84;;;19.70;27.78
25420;BME280;13354;48.174;11.566;2023-04-10T12:28:39;96061.13;;;19.61;27.58
25420;BME280;13354;48.174;11.566;2023-04-10T12:31:05;96064.78;;;19.67;27.04
25420;BME280;13354;48.174;11.566;2023-04-10T12:33:31;96060.97;;;19.79;27.31
25420;BME280;13354;48.174;11.566;2023-04-10T12:35:56;96055.31;;;19.93;27.72
25420;BME280;13354;48.174;11.566;2023-04-10T12:40:59;96056.66;;;19.78;28.14
25420;BME280;13354;48.174;11.566;2023-04-10T12:43:31;96051.38;;;19.84;28.24
25420;BME280;13354;48.174;11.566;2023-04-10T12:45:57;96052.44;;;19.83;27.29
25420;BME280;13354;48.174;11.566;2023-04-10T12:48:23;96036.25;;;19.66;27.33
25420;BME280;13354;48.174;11.566;2023-04-10T12:50:48;96043.09;;;20.02;27.87
25420;BME280;13354;48.174;11.566;2023-04-10T12:53:13;96034.84;;;19.92;27.14
25420;BME280;13354;48.174;11.566;2023-04-10T12:55:39;96039.59;;;20.01;27.07
25420;BME280;13354;48.174;11.566;2023-04-10T12:58:15;96041.75;;;19.88;27.01
25420;BME280;13354;48.174;11.566;2023-04-10T13:00:44;96028.75;;;19.39;27.45
25420;BME280;13354;48.174;11.566;2023-04-10T13:03:09;96030.44;;;19.57;27.70
25420;BME280;13354;48.174;11.566;2023-04-10T13:05:34;96027.72;;;19.69;28.31
25420;BME280;13354;48.174;11.566;2023-04-10T13:08:00;96026.84;;;19.63;26.78
25420;BME280;13354;48.174;11.566;2023-04-10T13:10:25;96027.97;;;19.67;27.36
25420;BME280;13354;48.174;11.566;2023-04-10T13:12:50;96030.22;;;19.87;27.34
25420;BME280;13354;48.174;11.566;2023-04-10T13:15:15;96019.63;;;19.97;26.53
25420;BME280;13354;48.174;11.566;2023-04-10T13:17:41;96022.88;;;19.83;27.59
25420;BME280;13354;48.174;11.566;2023-04-10T13:20:08;96007.59;;;19.43;27.60
25420;BME280;13354;48.174;11.566;2023-04-10T13:22:33;96008.09;;;19.40;27.79
25420;BME280;13354;48.174;11.566;2023-04-10T13:24:58;95998.88;;;19.36;27.22
25420;BME280;13354;48.174;11.566;2023-04-10T13:27:24;95991.78;;;19.58;28.45
25420;BME280;13354;48.174;11.566;2023-04-10T13:29:49;95994.84;;;19.50;29.13
25420;BME280;13354;48.174;11.566;2023-04-10T13:32:14;95994.72;;;19.57;28.55
25420;BME280;13354;48.174;11.566;2023-04-10T13:34:39;95991.94;;;19.51;27.87
25420;BME280;13354;48.174;11.566;2023-04-10T13:37:05;95982.28;;;19.39;28.65
25420;BME280;13354;48.174;11.566;2023-04-10T13:39:30;95975.25;;;19.21;28.28